createdAt,value
2017-08-18T00:00:24.204Z,0
2017-08-18T00:01:34.135Z,0
2017-08-18T00:02:43.745Z,0
2017-08-18T00:03:53.677Z,0
2017-08-18T00:05:03.904Z,0
2017-08-18T00:06:13.532Z,0
2017-08-18T00:07:23.154Z,0
2017-08-18T00:08:33.104Z,0
2017-08-18T00:09:43.375Z,0
2017-08-18T00:10:52.982Z,0
2017-08-18T00:12:03.008Z,0
2017-08-18T00:13:12.634Z,0
2017-08-18T00:14:22.244Z,0
2017-08-18T00:15:31.869Z,0
2017-08-18T00:16:41.788Z,0
2017-08-18T00:17:51.406Z,0
2017-08-18T00:19:01.626Z,0
2017-08-18T00:20:11.250Z,0
2017-08-18T00:21:21.170Z,0
2017-08-18T00:22:31.399Z,0
2017-08-18T00:23:41.489Z,0
2017-08-18T00:24:51.729Z,0
2017-08-18T00:26:01.333Z,0
2017-08-18T00:27:11.951Z,0
2017-08-18T00:28:21.879Z,0
2017-08-18T00:29:31.510Z,0
2017-08-18T00:30:41.741Z,0
2017-08-18T00:31:51.670Z,0
2017-08-18T00:33:01.588Z,0
2017-08-18T00:34:11.191Z,0
2017-08-18T00:35:21.409Z,0
2017-08-18T00:36:31.324Z,0
2017-08-18T00:37:41.250Z,0
2017-08-18T00:38:51.495Z,0
2017-08-18T00:40:01.721Z,0
2017-08-18T00:41:11.800Z,0
2017-08-18T00:42:21.742Z,0
2017-08-18T00:43:31.654Z,0
2017-08-18T00:44:41.883Z,0
2017-08-18T00:45:51.821Z,0
2017-08-18T00:47:01.889Z,0
2017-08-18T00:48:11.812Z,0
2017-08-18T00:49:22.047Z,0
2017-08-18T00:50:31.995Z,0
2017-08-18T00:51:42.256Z,0
2017-08-18T00:52:51.897Z,0
2017-08-18T00:54:01.568Z,0
2017-08-18T00:55:11.808Z,0
2017-08-18T00:56:21.115Z,0
2017-08-18T00:57:31.342Z,0
2017-08-18T00:58:41.098Z,0
2017-08-18T00:59:51.008Z,0
2017-08-18T01:01:00.933Z,0
2017-08-18T01:02:10.855Z,0
2017-08-18T01:03:20.168Z,0
2017-08-18T01:04:30.245Z,0
2017-08-18T01:05:40.161Z,0
2017-08-18T01:06:50.075Z,0
2017-08-18T01:08:00.313Z,0
2017-08-18T01:09:09.921Z,0
2017-08-18T01:10:19.242Z,0
2017-08-18T01:11:29.207Z,0
2017-08-18T01:12:39.457Z,0
2017-08-18T01:13:49.068Z,0
2017-08-18T01:14:58.989Z,0
2017-08-18T01:16:09.060Z,0
2017-08-18T01:17:19.283Z,0
2017-08-18T01:18:29.506Z,0
2017-08-18T01:19:38.793Z,0
2017-08-18T01:20:48.704Z,0
2017-08-18T01:21:58.465Z,0
2017-08-18T01:23:08.375Z,0
2017-08-18T01:24:18.314Z,0
2017-08-18T01:25:28.560Z,0
2017-08-18T01:26:38.481Z,0
2017-08-18T01:27:48.746Z,0
2017-08-18T01:28:58.041Z,0
2017-08-18T01:30:07.959Z,0
2017-08-18T01:31:18.187Z,0
2017-08-18T01:32:27.481Z,0
2017-08-18T01:33:37.449Z,0
2017-08-18T01:34:47.410Z,0
2017-08-18T01:35:57.630Z,0
2017-08-18T01:37:07.239Z,0
2017-08-18T01:38:17.150Z,0
2017-08-18T01:39:27.470Z,0
2017-08-18T01:40:37.717Z,0
2017-08-18T01:41:47.638Z,0
2017-08-18T01:42:57.551Z,0
2017-08-18T01:44:07.155Z,0
2017-08-18T01:45:16.457Z,0
2017-08-18T01:46:26.678Z,0
2017-08-18T01:47:36.903Z,0
2017-08-18T01:48:46.831Z,0
2017-08-18T01:49:57.059Z,0
2017-08-18T01:51:07.130Z,0
2017-08-18T01:52:17.068Z,0
2017-08-18T01:53:26.682Z,0
2017-08-18T01:54:36.610Z,0
2017-08-18T01:55:46.513Z,0
2017-08-18T01:56:56.725Z,0
2017-08-18T01:58:06.648Z,0
2017-08-18T01:59:16.870Z,0
2017-08-18T02:00:26.489Z,0
2017-08-18T02:01:35.486Z,0
2017-08-18T02:02:45.429Z,0
2017-08-18T02:03:55.342Z,0
2017-08-18T02:05:04.952Z,0
2017-08-18T02:06:14.899Z,0
2017-08-18T02:07:25.120Z,0
2017-08-18T02:08:35.641Z,0
2017-08-18T02:09:45.899Z,0
2017-08-18T02:10:55.821Z,0
2017-08-18T02:12:06.044Z,0
2017-08-18T02:13:15.653Z,0
2017-08-18T02:14:25.696Z,0
2017-08-18T02:15:35.296Z,0
2017-08-18T02:16:44.915Z,0
2017-08-18T02:17:54.852Z,0
2017-08-18T02:19:04.450Z,0
2017-08-18T02:20:14.392Z,0
2017-08-18T02:21:23.995Z,0
2017-08-18T02:22:33.912Z,0
2017-08-18T02:23:43.541Z,0
2017-08-18T02:24:53.149Z,0
2017-08-18T02:26:02.557Z,0
2017-08-18T02:27:12.776Z,0
2017-08-18T02:28:22.380Z,0
2017-08-18T02:29:32.295Z,0
2017-08-18T02:30:42.210Z,0
2017-08-18T02:31:52.286Z,0
2017-08-18T02:33:02.507Z,0
2017-08-18T02:34:12.735Z,0
2017-08-18T02:35:22.647Z,0
2017-08-18T02:36:32.877Z,0
2017-08-18T02:37:42.837Z,0
2017-08-18T02:38:52.764Z,0
2017-08-18T02:40:02.693Z,0
2017-08-18T02:41:12.923Z,0
2017-08-18T02:42:23.157Z,0
2017-08-18T02:43:32.868Z,0
2017-08-18T02:44:42.802Z,0
2017-08-18T02:45:52.418Z,0
2017-08-18T02:47:02.033Z,0
2017-08-18T02:48:11.663Z,0
2017-08-18T02:49:21.736Z,0
2017-08-18T02:50:31.974Z,0
2017-08-18T02:51:41.894Z,0
2017-08-18T02:52:52.502Z,0
2017-08-18T02:54:02.716Z,0
2017-08-18T02:55:12.335Z,0
2017-08-18T02:56:22.262Z,0
2017-08-18T02:57:31.866Z,0
2017-08-18T02:58:40.868Z,0
2017-08-18T02:59:51.085Z,0
2017-08-18T03:01:01.354Z,0
2017-08-18T03:02:11.267Z,0
2017-08-18T03:03:21.195Z,0
2017-08-18T03:04:30.814Z,0
2017-08-18T03:05:41.050Z,0
2017-08-18T03:06:51.437Z,0
2017-08-18T03:08:01.661Z,0
2017-08-18T03:09:11.572Z,0
2017-08-18T03:10:21.489Z,0
2017-08-18T03:11:31.712Z,0
2017-08-18T03:12:41.184Z,0
2017-08-18T03:13:51.126Z,0
2017-08-18T03:15:00.739Z,0
2017-08-18T03:16:10.661Z,0
2017-08-18T03:17:20.573Z,0
2017-08-18T03:18:30.942Z,0
2017-08-18T03:19:40.542Z,0
2017-08-18T03:20:49.868Z,0
2017-08-18T03:22:24.847Z,0
2017-08-18T03:23:34.770Z,0
2017-08-18T03:24:45.013Z,0
2017-08-18T03:25:55.243Z,0
2017-08-18T03:27:05.502Z,0
2017-08-18T03:28:15.120Z,0
2017-08-18T03:29:25.350Z,0
2017-08-18T03:30:34.965Z,0
2017-08-18T03:31:44.596Z,0
2017-08-18T03:32:54.531Z,0
2017-08-18T03:34:04.471Z,0
2017-08-18T03:35:13.830Z,0
2017-08-18T03:36:23.450Z,0
2017-08-18T03:37:33.376Z,0
2017-08-18T03:38:43.016Z,0
2017-08-18T03:39:53.248Z,0
2017-08-18T03:41:02.870Z,0
2017-08-18T03:42:12.826Z,0
2017-08-18T03:43:22.758Z,0
2017-08-18T03:44:32.676Z,0
2017-08-18T03:45:42.278Z,0
2017-08-18T03:46:52.208Z,0
2017-08-18T03:48:02.433Z,0
2017-08-18T03:49:12.372Z,0
2017-08-18T03:50:22.004Z,0
2017-08-18T03:51:31.938Z,0
2017-08-18T03:52:41.560Z,0
2017-08-18T03:53:51.785Z,0
2017-08-18T03:55:02.019Z,0
2017-08-18T03:56:11.647Z,0
2017-08-18T03:57:21.598Z,0
2017-08-18T03:58:31.556Z,0
2017-08-18T03:59:41.485Z,0
2017-08-18T04:00:51.094Z,0
2017-08-18T04:02:01.329Z,0
2017-08-18T04:03:10.982Z,0
2017-08-18T04:04:20.912Z,0
2017-08-18T04:05:30.522Z,0
2017-08-18T04:06:39.829Z,0
2017-08-18T04:07:49.751Z,0
2017-08-18T04:08:59.973Z,0
2017-08-18T04:10:09.895Z,0
2017-08-18T04:11:19.855Z,0
2017-08-18T04:12:29.468Z,0
2017-08-18T04:13:39.395Z,0
2017-08-18T04:14:49.645Z,0
2017-08-18T04:15:59.576Z,0
2017-08-18T04:17:09.533Z,0
2017-08-18T04:18:19.150Z,0
2017-08-18T04:19:29.067Z,0
2017-08-18T04:20:38.990Z,0
2017-08-18T04:21:48.916Z,0
2017-08-18T04:22:58.840Z,0
2017-08-18T04:24:09.083Z,0
2017-08-18T04:25:19.000Z,0
2017-08-18T04:26:28.326Z,0
2017-08-18T04:27:37.939Z,0
2017-08-18T04:28:47.866Z,0
2017-08-18T04:29:58.092Z,0
2017-08-18T04:31:08.317Z,0
2017-08-18T04:32:17.927Z,0
2017-08-18T04:33:27.845Z,0
2017-08-18T04:34:38.082Z,0
2017-08-18T04:35:48.315Z,0
2017-08-18T04:36:58.549Z,0
2017-08-18T04:38:08.474Z,0
2017-08-18T04:39:18.415Z,0
2017-08-18T04:40:27.718Z,0
2017-08-18T04:41:37.021Z,0
2017-08-18T04:42:47.251Z,0
2017-08-18T04:43:57.478Z,0
2017-08-18T04:45:07.419Z,0
2017-08-18T04:46:17.646Z,0
2017-08-18T04:47:26.951Z,0
2017-08-18T04:48:37.179Z,0
2017-08-18T04:49:46.487Z,0
2017-08-18T04:50:56.725Z,0
2017-08-18T04:52:06.634Z,0
2017-08-18T04:53:16.627Z,0
2017-08-18T04:54:26.545Z,0
2017-08-18T04:55:36.475Z,0
2017-08-18T04:56:46.719Z,0
2017-08-18T04:57:56.646Z,0
2017-08-18T04:59:06.888Z,0
2017-08-18T05:00:17.131Z,0
2017-08-18T05:01:27.053Z,0
2017-08-18T05:02:36.659Z,0
2017-08-18T05:03:46.587Z,0
2017-08-18T05:04:56.821Z,0
2017-08-18T05:06:06.756Z,0
2017-08-18T05:07:16.681Z,0
2017-08-18T05:08:26.004Z,0
2017-08-18T05:09:35.914Z,0
2017-08-18T05:10:46.147Z,0
2017-08-18T05:11:56.077Z,0
2017-08-18T05:13:05.401Z,0
2017-08-18T05:14:15.633Z,0
2017-08-18T05:15:25.561Z,0
2017-08-18T05:16:35.488Z,0
2017-08-18T05:17:45.721Z,0
2017-08-18T05:18:55.330Z,0
2017-08-18T05:20:05.547Z,0
2017-08-18T05:21:14.568Z,0
2017-08-18T05:22:24.813Z,0
2017-08-18T05:23:34.741Z,0
2017-08-18T05:24:43.778Z,0
2017-08-18T05:25:54.002Z,0
2017-08-18T05:27:03.941Z,0
2017-08-18T05:28:13.862Z,0
2017-08-18T05:29:24.108Z,0
2017-08-18T05:30:34.031Z,0
2017-08-18T05:31:43.962Z,0
2017-08-18T05:32:54.209Z,0
2017-08-18T05:34:04.134Z,0
2017-08-18T05:35:14.059Z,0
2017-08-18T05:36:23.974Z,0
2017-08-18T05:37:33.606Z,0
2017-08-18T05:38:43.228Z,0
2017-08-18T05:39:53.462Z,0
2017-08-18T05:41:03.400Z,0
2017-08-18T05:42:13.652Z,0
2017-08-18T05:43:23.894Z,0
2017-08-18T05:44:33.833Z,0
2017-08-18T05:45:43.749Z,0
2017-08-18T05:46:53.999Z,0
2017-08-18T05:48:03.982Z,0
2017-08-18T05:49:13.610Z,0
2017-08-18T05:50:23.232Z,0
2017-08-18T05:51:32.861Z,0
2017-08-18T05:52:42.783Z,0
2017-08-18T05:53:53.007Z,0
2017-08-18T05:55:02.780Z,0
2017-08-18T05:56:12.430Z,0
2017-08-18T05:57:22.380Z,0
2017-08-18T05:58:32.332Z,0
2017-08-18T05:59:41.646Z,0
2017-08-18T06:00:51.578Z,0
2017-08-18T06:02:01.208Z,0
2017-08-18T06:03:11.455Z,0
2017-08-18T06:04:20.465Z,0
2017-08-18T06:05:30.104Z,0
2017-08-18T06:06:39.745Z,0
2017-08-18T06:07:50.007Z,0
2017-08-18T06:08:59.948Z,0
2017-08-18T06:10:09.572Z,0
2017-08-18T06:11:18.583Z,0
2017-08-18T06:12:28.200Z,0
2017-08-18T06:13:37.817Z,0
2017-08-18T06:14:48.051Z,0
2017-08-18T06:15:58.275Z,0
2017-08-18T06:17:08.506Z,0
2017-08-18T06:18:18.427Z,0
2017-08-18T06:19:28.668Z,0
2017-08-18T06:20:38.905Z,0
2017-08-18T06:21:48.840Z,0
2017-08-18T06:22:59.073Z,0
2017-08-18T06:24:08.995Z,0
2017-08-18T06:25:19.217Z,0
2017-08-18T06:26:29.164Z,0
2017-08-18T06:27:39.393Z,0
2017-08-18T06:28:49.637Z,0
2017-08-18T06:29:59.899Z,0
2017-08-18T06:31:09.832Z,0
2017-08-18T06:32:20.080Z,0
2017-08-18T06:33:29.706Z,0
2017-08-18T06:34:39.392Z,0
2017-08-18T06:35:49.345Z,0
2017-08-18T06:36:58.366Z,0
2017-08-18T06:38:08.289Z,0
2017-08-18T06:39:18.221Z,0
2017-08-18T06:40:27.852Z,0
2017-08-18T06:41:38.088Z,0
2017-08-18T06:42:48.031Z,0
2017-08-18T06:43:58.264Z,0
2017-08-18T06:45:08.275Z,0
2017-08-18T06:46:18.544Z,5
2017-08-18T06:47:28.791Z,5
2017-08-18T06:48:38.404Z,5
2017-08-18T06:49:47.714Z,5
2017-08-18T06:50:57.950Z,5
2017-08-18T06:52:07.282Z,5
2017-08-18T06:53:17.218Z,5
2017-08-18T06:54:27.157Z,5
2017-08-18T06:55:37.101Z,5
2017-08-18T06:56:47.361Z,5
2017-08-18T06:57:57.610Z,5
2017-08-18T06:59:07.562Z,0
2017-08-18T07:00:17.206Z,0
2017-08-18T07:01:27.206Z,0
2017-08-18T07:02:37.435Z,0
2017-08-18T07:03:47.079Z,0
2017-08-18T07:04:57.004Z,0
2017-08-18T07:06:07.289Z,0
2017-08-18T07:07:17.218Z,0
2017-08-18T07:08:27.165Z,5
2017-08-18T07:09:37.414Z,5
2017-08-18T07:10:47.397Z,5
2017-08-18T07:11:57.334Z,5
2017-08-18T07:13:07.321Z,5
2017-08-18T07:14:17.257Z,5
2017-08-18T07:15:27.499Z,5
2017-08-18T07:16:37.832Z,5
2017-08-18T07:17:48.079Z,5
2017-08-18T07:18:58.308Z,5
2017-08-18T07:20:07.936Z,5
2017-08-18T07:21:17.571Z,5
2017-08-18T07:22:27.507Z,5
2017-08-18T07:23:37.163Z,5
2017-08-18T07:24:47.413Z,5
2017-08-18T07:25:57.350Z,5
2017-08-18T07:27:07.289Z,5
2017-08-18T07:28:17.517Z,5
2017-08-18T07:29:26.532Z,5
2017-08-18T07:30:36.459Z,5
2017-08-18T07:31:46.699Z,5
2017-08-18T07:32:56.317Z,5
2017-08-18T07:34:06.551Z,5
2017-08-18T07:35:16.180Z,5
2017-08-18T07:36:25.803Z,5
2017-08-18T07:37:35.151Z,5
2017-08-18T07:38:45.093Z,5
2017-08-18T07:39:55.336Z,5
2017-08-18T07:41:05.264Z,5
2017-08-18T07:42:15.502Z,5
2017-08-18T07:43:25.747Z,5
2017-08-18T07:44:35.993Z,5
2017-08-18T07:45:45.315Z,5
2017-08-18T07:46:54.626Z,5
2017-08-18T07:48:04.573Z,5
2017-08-18T07:49:14.504Z,5
2017-08-18T07:50:24.483Z,5
2017-08-18T07:51:33.478Z,5
2017-08-18T07:52:43.401Z,5
2017-08-18T07:53:53.340Z,10
2017-08-18T07:55:03.262Z,10
2017-08-18T07:56:13.527Z,10
2017-08-18T07:57:23.485Z,10
2017-08-18T07:58:32.504Z,10
2017-08-18T07:59:42.449Z,10
2017-08-18T08:00:52.697Z,10
2017-08-18T08:02:02.845Z,10
2017-08-18T08:03:13.085Z,10
2017-08-18T08:04:23.337Z,10
2017-08-18T08:05:32.651Z,10
2017-08-18T08:06:42.574Z,10
2017-08-18T08:07:52.195Z,10
2017-08-18T08:09:02.135Z,10
2017-08-18T08:10:11.776Z,10
2017-08-18T08:11:21.404Z,10
2017-08-18T08:12:31.354Z,10
2017-08-18T08:13:41.288Z,10
2017-08-18T08:14:51.537Z,10
2017-08-18T08:16:01.477Z,10
2017-08-18T08:17:11.404Z,10
2017-08-18T08:18:21.340Z,10
2017-08-18T08:19:30.672Z,10
2017-08-18T08:20:40.947Z,10
2017-08-18T08:21:50.894Z,10
2017-08-18T08:23:00.511Z,10
2017-08-18T08:24:10.773Z,10
2017-08-18T08:25:20.435Z,10
2017-08-18T08:26:30.061Z,10
2017-08-18T08:27:39.705Z,10
2017-08-18T08:28:49.950Z,10
2017-08-18T08:29:59.602Z,10
2017-08-18T08:31:09.878Z,10
2017-08-18T08:32:20.127Z,10
2017-08-18T08:33:30.398Z,10
2017-08-18T08:34:40.034Z,10
2017-08-18T08:35:49.977Z,10
2017-08-18T08:36:59.291Z,10
2017-08-18T08:38:09.554Z,10
2017-08-18T08:39:19.508Z,15
2017-08-18T08:40:29.467Z,10
2017-08-18T08:41:39.722Z,10
2017-08-18T08:42:50.007Z,10
2017-08-18T08:43:59.933Z,10
2017-08-18T08:45:09.640Z,15
2017-08-18T08:46:19.592Z,15
2017-08-18T08:47:29.864Z,15
2017-08-18T08:48:39.499Z,20
2017-08-18T08:49:49.451Z,15
2017-08-18T08:50:59.099Z,15
2017-08-18T08:52:08.402Z,15
2017-08-18T08:53:18.029Z,20
2017-08-18T08:54:28.282Z,20
2017-08-18T08:55:38.243Z,20
2017-08-18T08:56:48.198Z,20
2017-08-18T08:57:57.823Z,25
2017-08-18T08:59:07.142Z,30
2017-08-18T09:00:16.769Z,30
2017-08-18T09:01:26.409Z,35
2017-08-18T09:02:36.662Z,35
2017-08-18T09:03:46.606Z,35
2017-08-18T09:04:56.555Z,30
2017-08-18T09:06:06.487Z,30
2017-08-18T09:07:16.421Z,30
2017-08-18T09:08:26.348Z,35
2017-08-18T09:09:35.071Z,40
2017-08-18T09:10:44.719Z,40
2017-08-18T09:11:54.955Z,35
2017-08-18T09:13:05.253Z,30
2017-08-18T09:14:15.202Z,25
2017-08-18T09:15:24.861Z,30
2017-08-18T09:16:34.201Z,25
2017-08-18T09:17:44.142Z,25
2017-08-18T09:18:53.793Z,25
2017-08-18T09:20:03.759Z,25
2017-08-18T09:21:13.381Z,20
2017-08-18T09:22:23.321Z,20
2017-08-18T09:23:33.243Z,20
2017-08-18T09:24:43.503Z,25
2017-08-18T09:25:53.733Z,20
2017-08-18T09:27:03.680Z,20
2017-08-18T09:28:13.310Z,15
2017-08-18T09:29:23.229Z,15
2017-08-18T09:30:33.168Z,10
2017-08-18T09:31:43.412Z,20
2017-08-18T09:32:53.353Z,20
2017-08-18T09:34:02.988Z,20
2017-08-18T09:35:12.928Z,15
2017-08-18T09:36:22.918Z,15
2017-08-18T09:37:33.165Z,20
2017-08-18T09:38:43.141Z,25
2017-08-18T09:39:53.409Z,25
2017-08-18T09:41:03.034Z,25
2017-08-18T09:42:12.961Z,20
2017-08-18T09:43:22.284Z,30
2017-08-18T09:44:32.525Z,30
2017-08-18T09:45:42.771Z,25
2017-08-18T09:46:52.701Z,30
2017-08-18T09:48:02.646Z,30
2017-08-18T09:49:12.591Z,35
2017-08-18T09:50:22.216Z,30
2017-08-18T09:51:32.466Z,25
2017-08-18T09:52:42.396Z,25
2017-08-18T09:53:52.408Z,25
2017-08-18T09:55:02.340Z,30
2017-08-18T09:56:12.585Z,25
2017-08-18T09:57:21.923Z,30
2017-08-18T09:58:31.882Z,30
2017-08-18T09:59:41.813Z,35
2017-08-18T10:00:51.767Z,35
2017-08-18T10:02:02.009Z,35
2017-08-18T10:03:11.627Z,35
2017-08-18T10:04:21.562Z,35
2017-08-18T10:05:31.502Z,35
2017-08-18T10:06:41.119Z,30
2017-08-18T10:07:51.365Z,30
2017-08-18T10:09:00.684Z,25
2017-08-18T10:10:10.626Z,25
2017-08-18T10:11:20.561Z,25
2017-08-18T10:12:30.790Z,25
2017-08-18T10:13:40.430Z,25
2017-08-18T10:14:50.673Z,25
2017-08-18T10:16:00.517Z,25
2017-08-18T10:17:10.463Z,25
2017-08-18T10:18:20.096Z,25
2017-08-18T10:19:29.752Z,30
2017-08-18T10:20:39.697Z,25
2017-08-18T10:21:49.977Z,25
2017-08-18T10:23:00.232Z,30
2017-08-18T10:24:09.894Z,30
2017-08-18T10:25:19.563Z,30
2017-08-18T10:26:29.819Z,30
2017-08-18T10:27:40.057Z,30
2017-08-18T10:28:50.012Z,30
2017-08-18T10:29:59.655Z,25
2017-08-18T10:31:09.593Z,25
2017-08-18T10:32:19.546Z,25
2017-08-18T10:33:29.484Z,30
2017-08-18T10:34:39.134Z,30
2017-08-18T10:35:49.090Z,30
2017-08-18T10:36:59.342Z,25
2017-08-18T10:38:09.284Z,25
2017-08-18T10:39:18.928Z,25
2017-08-18T10:40:28.895Z,30
2017-08-18T10:41:38.844Z,25
2017-08-18T10:42:48.788Z,25
2017-08-18T10:43:58.435Z,30
2017-08-18T10:45:08.706Z,30
2017-08-18T10:46:18.338Z,30
2017-08-18T10:47:27.964Z,35
2017-08-18T10:48:37.597Z,35
2017-08-18T10:49:47.543Z,35
2017-08-18T10:50:57.473Z,30
2017-08-18T10:52:07.422Z,30
2017-08-18T10:53:17.064Z,25
2017-08-18T10:54:27.335Z,25
2017-08-18T10:55:37.603Z,25
2017-08-18T10:56:47.849Z,25
2017-08-18T10:57:57.398Z,25
2017-08-18T10:59:07.676Z,25
2017-08-18T11:00:17.926Z,25
2017-08-18T11:01:28.167Z,25
2017-08-18T11:02:38.114Z,25
2017-08-18T11:03:48.356Z,25
2017-08-18T11:04:58.298Z,25
2017-08-18T11:06:07.638Z,25
2017-08-18T11:07:17.882Z,25
2017-08-18T11:08:27.829Z,25
2017-08-18T11:09:37.181Z,25
2017-08-18T11:10:47.124Z,25
2017-08-18T11:11:57.380Z,20
2017-08-18T11:13:07.048Z,20
2017-08-18T11:14:17.004Z,20
2017-08-18T11:15:26.941Z,20
2017-08-18T11:16:37.227Z,20
2017-08-18T11:17:47.166Z,15
2017-08-18T11:18:56.806Z,15
2017-08-18T11:20:06.797Z,15
2017-08-18T11:21:16.141Z,10
2017-08-18T11:22:26.086Z,10
2017-08-18T11:23:35.131Z,10
2017-08-18T11:24:45.377Z,10
2017-08-18T11:25:55.632Z,10
2017-08-18T11:27:05.921Z,15
2017-08-18T11:28:14.943Z,15
2017-08-18T11:29:24.899Z,15
2017-08-18T11:30:33.923Z,15
2017-08-18T11:31:43.245Z,15
2017-08-18T11:32:53.184Z,10
2017-08-18T11:34:03.132Z,10
2017-08-18T11:35:12.820Z,10
2017-08-18T11:36:22.761Z,10
2017-08-18T11:37:32.698Z,10
2017-08-18T11:38:42.948Z,10
2017-08-18T11:39:52.904Z,15
2017-08-18T11:41:03.148Z,15
2017-08-18T11:42:13.088Z,15
2017-08-18T11:43:22.709Z,15
2017-08-18T11:44:32.372Z,15
2017-08-18T11:45:42.643Z,15
2017-08-18T11:46:52.611Z,15
2017-08-18T11:48:02.851Z,20
2017-08-18T11:49:12.804Z,20
2017-08-18T11:50:22.771Z,20
2017-08-18T11:51:32.701Z,15
2017-08-18T11:52:42.360Z,15
2017-08-18T11:53:52.328Z,15
2017-08-18T11:55:01.940Z,15
2017-08-18T11:56:11.880Z,15
2017-08-18T11:57:21.821Z,15
2017-08-18T11:58:31.478Z,15
2017-08-18T11:59:41.419Z,20
2017-08-18T12:00:51.664Z,20
2017-08-18T12:02:01.909Z,15
2017-08-18T12:03:11.852Z,15
2017-08-18T12:04:21.493Z,15
2017-08-18T12:05:31.428Z,15
2017-08-18T12:06:41.063Z,15
2017-08-18T12:07:50.375Z,15
2017-08-18T12:09:00.641Z,15
2017-08-18T12:10:10.911Z,15
2017-08-18T12:11:20.538Z,15
2017-08-18T12:12:30.791Z,10
2017-08-18T12:13:40.107Z,5
2017-08-18T12:14:50.400Z,5
2017-08-18T12:16:00.041Z,5
2017-08-18T12:17:10.004Z,5
2017-08-18T12:18:19.643Z,5
2017-08-18T12:19:29.275Z,5
2017-08-18T12:20:39.208Z,5
2017-08-18T12:21:48.860Z,0
2017-08-18T12:22:58.167Z,0
2017-08-18T12:24:08.407Z,0
2017-08-18T12:25:17.776Z,5
2017-08-18T12:26:27.406Z,5
2017-08-18T12:27:37.078Z,5
2017-08-18T12:28:47.707Z,5
2017-08-18T12:29:57.024Z,5
2017-08-18T12:31:06.348Z,5
2017-08-18T12:32:15.674Z,5
2017-08-18T12:33:25.908Z,5
2017-08-18T12:34:35.838Z,5
2017-08-18T12:35:45.778Z,5
2017-08-18T12:36:56.014Z,5
2017-08-18T12:38:06.262Z,0
2017-08-18T12:39:16.518Z,5
2017-08-18T12:40:26.480Z,5
2017-08-18T12:41:36.098Z,5
2017-08-18T12:42:46.327Z,5
2017-08-18T12:43:56.293Z,15
2017-08-18T12:45:06.540Z,15
2017-08-18T12:46:16.791Z,15
2017-08-18T12:47:26.434Z,15
2017-08-18T12:48:36.697Z,15
2017-08-18T12:49:46.337Z,15
2017-08-18T12:50:56.271Z,15
2017-08-18T12:52:06.281Z,15
2017-08-18T12:53:16.532Z,15
2017-08-18T12:54:25.883Z,15
2017-08-18T12:55:35.810Z,15
2017-08-18T12:56:45.431Z,15
2017-08-18T12:57:55.061Z,15
2017-08-18T12:59:05.321Z,15
2017-08-18T13:00:15.332Z,15
2017-08-18T13:01:25.293Z,15
2017-08-18T13:02:34.605Z,15
2017-08-18T13:03:44.534Z,10
2017-08-18T13:04:54.784Z,10
2017-08-18T13:06:04.728Z,10
2017-08-18T13:07:14.974Z,10
2017-08-18T13:08:24.622Z,10
2017-08-18T13:09:34.570Z,10
2017-08-18T13:10:44.816Z,10
2017-08-18T13:11:54.773Z,10
2017-08-18T13:13:04.729Z,10
2017-08-18T13:14:14.663Z,10
2017-08-18T13:15:24.914Z,10
2017-08-18T13:16:34.878Z,10
2017-08-18T13:17:44.820Z,10
2017-08-18T13:18:54.150Z,10
2017-08-18T13:20:03.482Z,10
2017-08-18T13:21:13.419Z,10
2017-08-18T13:22:23.646Z,10
2017-08-18T13:23:33.602Z,10
2017-08-18T13:24:42.920Z,10
2017-08-18T13:25:52.849Z,10
2017-08-18T13:27:02.493Z,10
2017-08-18T13:28:12.733Z,10
2017-08-18T13:29:22.692Z,10
2017-08-18T13:30:32.634Z,10
2017-08-18T13:31:42.554Z,10
2017-08-18T13:32:52.489Z,10
2017-08-18T13:34:02.742Z,10
2017-08-18T13:35:12.680Z,10
2017-08-18T13:36:22.624Z,5
2017-08-18T13:37:32.866Z,5
2017-08-18T13:38:42.499Z,5
2017-08-18T13:39:52.437Z,5
2017-08-18T13:41:02.381Z,5
2017-08-18T13:42:12.317Z,5
2017-08-18T13:43:21.946Z,5
2017-08-18T13:44:31.874Z,0
2017-08-18T13:45:41.507Z,0
2017-08-18T13:46:51.771Z,0
2017-08-18T13:48:01.709Z,0
2017-08-18T13:49:11.958Z,0
2017-08-18T13:50:22.185Z,0
2017-08-18T13:51:31.812Z,0
2017-08-18T13:52:41.743Z,0
2017-08-18T13:53:51.994Z,5
2017-08-18T13:55:01.954Z,5
2017-08-18T13:56:11.907Z,5
2017-08-18T13:57:21.543Z,5
2017-08-18T13:58:31.795Z,5
2017-08-18T13:59:41.722Z,5
2017-08-18T14:00:51.651Z,10
2017-08-18T14:02:01.884Z,10
2017-08-18T14:03:11.815Z,10
2017-08-18T14:04:21.755Z,10
2017-08-18T14:05:31.685Z,10
2017-08-18T14:06:41.916Z,10
2017-08-18T14:07:51.859Z,10
2017-08-18T14:09:01.802Z,10
2017-08-18T14:10:11.749Z,10
2017-08-18T14:11:21.687Z,10
2017-08-18T14:12:31.634Z,10
2017-08-18T14:13:41.250Z,5
2017-08-18T14:14:50.885Z,5
2017-08-18T14:16:01.121Z,5
2017-08-18T14:17:11.048Z,5
2017-08-18T14:18:21.312Z,5
2017-08-18T14:19:30.948Z,5
2017-08-18T14:20:40.267Z,5
2017-08-18T14:21:49.892Z,5
2017-08-18T14:22:59.514Z,5
2017-08-18T14:24:09.489Z,5
2017-08-18T14:25:19.745Z,5
2017-08-18T14:26:29.706Z,5
2017-08-18T14:27:39.637Z,5
2017-08-18T14:28:49.578Z,5
2017-08-18T14:29:59.833Z,5
2017-08-18T14:31:09.468Z,5
2017-08-18T14:32:19.142Z,5
2017-08-18T14:33:29.423Z,5
2017-08-18T14:34:39.715Z,5
2017-08-18T14:35:49.354Z,5
2017-08-18T14:36:58.990Z,5
2017-08-18T14:38:08.928Z,5
2017-08-18T14:39:19.166Z,5
2017-08-18T14:40:29.098Z,5
2017-08-18T14:41:38.412Z,5
2017-08-18T14:42:48.348Z,5
2017-08-18T14:43:57.976Z,5
2017-08-18T14:45:07.361Z,5
2017-08-18T14:46:17.295Z,5
2017-08-18T14:47:27.534Z,5
2017-08-18T14:48:37.481Z,5
2017-08-18T14:49:47.757Z,5
2017-08-18T14:50:57.993Z,5
2017-08-18T14:52:07.935Z,5
2017-08-18T14:53:17.559Z,5
2017-08-18T14:54:27.823Z,5
2017-08-18T14:55:37.455Z,5
2017-08-18T14:56:47.097Z,5
2017-08-18T14:57:57.341Z,5
2017-08-18T14:59:07.291Z,5
2017-08-18T15:00:16.919Z,5
2017-08-18T15:01:27.168Z,5
2017-08-18T15:02:36.800Z,5
2017-08-18T15:03:46.757Z,5
2017-08-18T15:04:56.695Z,5
2017-08-18T15:06:06.638Z,5
2017-08-18T15:07:16.573Z,5
2017-08-18T15:08:26.213Z,10
2017-08-18T15:09:35.843Z,10
2017-08-18T15:10:46.092Z,10
2017-08-18T15:11:55.717Z,10
2017-08-18T15:13:05.952Z,10
2017-08-18T15:14:15.582Z,10
2017-08-18T15:15:25.845Z,10
2017-08-18T15:16:35.486Z,10
2017-08-18T15:17:45.130Z,10
2017-08-18T15:18:54.807Z,10
2017-08-18T15:20:04.754Z,10
2017-08-18T15:21:14.070Z,10
2017-08-18T15:22:23.827Z,10
2017-08-18T15:23:33.476Z,10
2017-08-18T15:24:43.425Z,10
2017-08-18T15:25:53.151Z,10
2017-08-18T15:27:03.094Z,10
2017-08-18T15:28:13.039Z,10
2017-08-18T15:29:22.687Z,10
2017-08-18T15:30:32.357Z,10
2017-08-18T15:31:42.309Z,10
2017-08-18T15:32:51.957Z,10
2017-08-18T15:34:01.609Z,10
2017-08-18T15:35:11.545Z,10
2017-08-18T15:36:21.827Z,10
2017-08-18T15:37:32.085Z,10
2017-08-18T15:38:42.032Z,10
2017-08-18T15:39:52.285Z,10
2017-08-18T15:41:02.556Z,10
2017-08-18T15:42:11.886Z,10
2017-08-18T15:43:21.840Z,10
2017-08-18T15:44:31.471Z,10
2017-08-18T15:45:42.111Z,10
2017-08-18T15:46:52.057Z,10
2017-08-18T15:48:01.701Z,10
2017-08-18T15:49:11.645Z,10
2017-08-18T15:50:21.912Z,10
2017-08-18T15:51:31.556Z,10
2017-08-18T15:52:41.505Z,10
2017-08-18T15:53:51.458Z,5
2017-08-18T15:55:01.396Z,5
2017-08-18T15:56:11.050Z,5
2017-08-18T15:57:20.670Z,10
2017-08-18T15:58:30.337Z,10
2017-08-18T15:59:40.288Z,10
2017-08-18T16:00:49.907Z,10
2017-08-18T16:01:58.929Z,10
2017-08-18T16:03:08.565Z,10
2017-08-18T16:04:18.546Z,10
2017-08-18T16:05:28.169Z,10
2017-08-18T16:06:37.779Z,10
2017-08-18T16:07:47.110Z,10
2017-08-18T16:08:57.041Z,10
2017-08-18T16:10:07.285Z,10
2017-08-18T16:11:17.539Z,10
2017-08-18T16:12:27.505Z,10
2017-08-18T16:13:37.741Z,10
2017-08-18T16:14:47.977Z,10
2017-08-18T16:15:57.932Z,10
2017-08-18T16:17:08.178Z,10
2017-08-18T16:18:17.812Z,10
2017-08-18T16:19:27.444Z,10
2017-08-18T16:20:37.083Z,10
2017-08-18T16:21:46.694Z,10
2017-08-18T16:22:56.937Z,10
2017-08-18T16:24:07.184Z,10
2017-08-18T16:25:16.825Z,10
2017-08-18T16:26:27.068Z,10
2017-08-18T16:27:36.696Z,10
2017-08-18T16:28:46.633Z,5
2017-08-18T16:29:56.862Z,5
2017-08-18T16:31:06.790Z,10
2017-08-18T16:32:16.397Z,10
2017-08-18T16:33:25.715Z,10
2017-08-18T16:34:35.638Z,5
2017-08-18T16:35:45.599Z,5
2017-08-18T16:36:55.535Z,5
2017-08-18T16:38:05.157Z,5
2017-08-18T16:39:14.809Z,5
2017-08-18T16:40:24.437Z,5
2017-08-18T16:41:34.066Z,5
2017-08-18T16:42:43.680Z,5
2017-08-18T16:43:53.332Z,5
2017-08-18T16:45:03.557Z,5
2017-08-18T16:46:13.814Z,5
2017-08-18T16:47:23.761Z,5
2017-08-18T16:48:33.396Z,5
2017-08-18T16:49:43.634Z,5
2017-08-18T16:50:53.876Z,5
2017-08-18T16:52:04.142Z,5
2017-08-18T16:53:13.836Z,5
2017-08-18T16:54:23.802Z,5
2017-08-18T16:55:33.115Z,5
2017-08-18T16:56:42.619Z,5
2017-08-18T16:57:52.279Z,5
2017-08-18T16:59:01.891Z,5